Time;durP1;ratioP1;P1;durP2;ratioP2;P2;SDS_P1;SDS_P2;PMS_P1;PMS_P2;Temp;Humidity;BMP_temperature;BMP_pressure;BME280_temperature;BME280_humidity;BME280_pressure;Samples;Min_cycle;Max_cycle;Signal;HPM_P1;HPM_P2
2021/08/17 00:01:55;;;;;;;11.27;3.83;;;14.30;99.90;;;;;;6286861;22;20443;-85
2021/08/17 00:04:22;;;;;;;9.10;3.90;;;14.30;99.90;;;;;;6284575;22;20893;-84
2021/08/17 00:06:49;;;;;;;5.90;3.60;;;14.10;99.90;;;;;;6288350;22;20409;-84
2021/08/17 00:09:16;;;;;;;4.77;4.33;;;14.20;99.90;;;;;;6291272;22;20421;-85
2021/08/17 00:11:43;;;;;;;9.83;3.70;;;14.30;99.90;;;;;;6283588;22;20474;-85
2021/08/17 00:14:09;;;;;;;5.30;3.00;;;14.20;99.90;;;;;;6282704;22;20412;-84
2021/08/17 00:16:37;;;;;;;11.90;3.70;;;14.30;99.90;;;;;;6283095;22;20409;-84
2021/08/17 00:19:04;;;;;;;6.00;3.17;;;14.30;99.90;;;;;;6284006;22;20444;-82
2021/08/17 00:21:31;;;;;;;7.10;3.33;;;14.30;99.90;;;;;;6284973;22;20405;-85
2021/08/17 00:23:57;;;;;;;4.80;3.90;;;14.30;99.90;;;;;;6285389;22;20405;-86
2021/08/17 00:26:24;;;;;;;6.93;3.13;;;14.30;99.90;;;;;;6285478;22;20405;-86
2021/08/17 00:28:50;;;;;;;6.20;3.57;;;14.10;99.90;;;;;;6287636;22;20401;-83
2021/08/17 00:31:17;;;;;;;5.87;3.30;;;14.20;99.90;;;;;;6286747;22;20409;-85
2021/08/17 00:33:45;;;;;;;9.73;3.70;;;14.30;99.90;;;;;;6284947;22;20408;-85
2021/08/17 00:36:14;;;;;;;4.73;3.17;;;14.30;99.90;;;;;;6284640;22;20803;-85
2021/08/17 00:38:41;;;;;;;9.13;3.70;;;14.30;99.90;;;;;;6287731;22;20437;-85
2021/08/17 00:41:08;;;;;;;5.10;3.33;;;14.40;99.90;;;;;;6289747;22;20441;-85
2021/08/17 00:43:35;;;;;;;4.90;2.33;;;14.30;99.90;;;;;;6290350;22;20401;-84
2021/08/17 00:46:04;;;;;;;7.23;3.57;;;14.40;99.90;;;;;;6285753;22;20439;-85
2021/08/17 00:48:31;;;;;;;4.53;3.33;;;14.50;99.90;;;;;;6285031;22;20955;-85
2021/08/17 00:50:59;;;;;;;6.17;3.43;;;14.50;99.90;;;;;;6287075;22;20432;-85
2021/08/17 00:53:25;;;;;;;8.83;3.23;;;14.50;99.90;;;;;;6294683;22;20733;-86
2021/08/17 00:55:52;;;;;;;5.67;3.20;;;14.40;99.90;;;;;;6286887;22;20439;-86
2021/08/17 00:58:22;;;;;;;7.63;3.33;;;14.40;99.90;;;;;;6286383;22;20409;-85
2021/08/17 01:00:48;;;;;;;4.20;3.20;;;14.40;99.90;;;;;;6286120;22;20499;-85
2021/08/17 01:03:15;;;;;;;8.60;3.20;;;14.40;99.90;;;;;;6286426;22;20423;-84
2021/08/17 01:05:41;;;;;;;5.17;4.57;;;14.40;99.90;;;;;;6286359;22;20898;-85
2021/08/17 01:08:09;;;;;;;6.67;3.40;;;14.40;99.90;;;;;;6286177;22;20416;-85
2021/08/17 01:10:37;;;;;;;4.50;3.10;;;14.50;99.90;;;;;;6283955;22;20424;-84
2021/08/17 01:13:03;;;;;;;9.77;3.97;;;14.50;99.90;;;;;;6285451;22;20416;-85
2021/08/17 01:15:32;;;;;;;6.87;4.10;;;14.40;99.90;;;;;;6287106;22;20459;-85
2021/08/17 01:17:58;;;;;;;5.67;2.90;;;14.50;99.90;;;;;;6285185;22;20405;-85
2021/08/17 01:20:25;;;;;;;7.43;3.83;;;14.50;99.90;;;;;;6285631;22;20452;-85
2021/08/17 01:22:52;;;;;;;6.93;3.37;;;14.50;99.90;;;;;;6285570;22;20428;-85
2021/08/17 01:25:20;;;;;;;4.13;2.70;;;14.50;99.90;;;;;;6284630;22;20393;-85
2021/08/17 01:27:48;;;;;;;3.77;3.43;;;14.40;99.90;;;;;;6284298;22;20413;-85
2021/08/17 01:30:16;;;;;;;9.13;3.80;;;14.40;99.90;;;;;;6284347;22;20413;-86
2021/08/17 01:32:45;;;;;;;6.27;3.50;;;14.50;99.90;;;;;;6285849;22;20410;-85
2021/08/17 01:35:12;;;;;;;6.47;4.07;;;14.50;99.90;;;;;;6287980;22;20405;-85
2021/08/17 01:37:39;;;;;;;4.73;3.37;;;14.60;99.90;;;;;;6289580;22;20428;-85
2021/08/17 01:40:08;;;;;;;7.30;3.27;;;14.50;99.90;;;;;;6285952;22;20452;-85
2021/08/17 01:42:35;;;;;;;8.83;3.50;;;14.50;99.90;;;;;;6283570;22;20401;-84
2021/08/17 01:45:04;;;;;;;7.03;3.60;;;14.40;99.90;;;;;;6282995;22;20413;-85
2021/08/17 01:47:32;;;;;;;5.43;3.63;;;14.40;99.90;;;;;;6281970;22;20431;-85
2021/08/17 01:50:00;;;;;;;8.37;3.47;;;14.30;99.90;;;;;;6282564;22;20421;-85
2021/08/17 01:52:27;;;;;;;4.60;3.47;;;14.20;99.90;;;;;;6285253;22;20484;-83
2021/08/17 01:54:53;;;;;;;4.97;3.30;;;14.20;99.90;;;;;;6281899;22;20405;-85
2021/08/17 01:57:21;;;;;;;7.37;3.40;;;14.20;99.90;;;;;;6282242;22;20405;-84
2021/08/17 01:59:47;;;;;;;5.80;3.03;;;14.20;99.90;;;;;;6282999;22;20440;-84
2021/08/17 02:02:15;;;;;;;4.90;2.90;;;14.20;99.90;;;;;;6286232;22;20412;-85
2021/08/17 02:04:42;;;;;;;5.57;3.70;;;14.00;99.90;;;;;;6287871;22;20402;-85
2021/08/17 02:07:08;;;;;;;6.40;3.53;;;14.10;99.90;;;;;;6284029;22;20910;-86
2021/08/17 02:09:35;;;;;;;8.93;3.80;;;14.10;99.90;;;;;;6282669;22;20427;-85
2021/08/17 02:12:02;;;;;;;5.60;2.97;;;14.10;99.90;;;;;;6283517;22;20720;-85
2021/08/17 02:14:28;;;;;;;4.80;3.27;;;14.10;99.90;;;;;;6285365;22;20412;-84
2021/08/17 02:16:55;;;;;;;4.10;2.77;;;14.10;99.90;;;;;;6284458;22;20404;-84
2021/08/17 02:19:24;;;;;;;6.93;2.90;;;14.20;99.90;;;;;;6292135;22;20459;-83
2021/08/17 02:21:51;;;;;;;7.10;3.10;;;14.20;99.90;;;;;;6300686;22;20400;-84
2021/08/17 02:24:17;;;;;;;4.67;3.30;;;14.10;99.90;;;;;;6296734;22;20401;-86
2021/08/17 02:26:45;;;;;;;6.67;2.97;;;14.10;99.90;;;;;;6285088;22;20400;-84
2021/08/17 02:29:11;;;;;;;4.90;3.87;;;14.20;99.90;;;;;;6285021;22;20428;-86
2021/08/17 02:31:38;;;;;;;8.50;3.20;;;14.10;99.90;;;;;;6285371;22;20412;-85
2021/08/17 02:34:04;;;;;;;5.93;2.30;;;14.10;99.90;;;;;;6286156;22;20431;-85
2021/08/17 02:36:33;;;;;;;4.77;3.00;;;14.10;99.90;;;;;;6282559;22;20454;-84
2021/08/17 02:38:59;;;;;;;3.10;2.80;;;13.40;99.90;;;;;;6294282;22;20427;-83
2021/08/17 02:41:26;;;;;;;4.80;3.60;;;14.20;99.90;;;;;;6300051;22;20405;-83
2021/08/17 02:43:52;;;;;;;4.50;2.47;;;14.20;99.90;;;;;;6290132;22;20401;-85
2021/08/17 02:46:19;;;;;;;6.10;3.40;;;14.20;99.90;;;;;;6289943;22;20404;-85
2021/08/17 02:48:46;;;;;;;7.80;3.40;;;14.20;99.90;;;;;;6291508;22;20927;-84
2021/08/17 02:51:14;;;;;;;4.83;2.70;;;14.30;99.90;;;;;;6289579;22;20420;-85
2021/08/17 02:53:42;;;;;;;4.80;3.53;;;14.30;99.90;;;;;;6289414;22;20405;-85
2021/08/17 02:56:09;;;;;;;6.20;3.17;;;14.40;99.90;;;;;;6287555;22;20372;-87
2021/08/17 02:58:36;;;;;;;6.60;3.23;;;14.40;99.90;;;;;;6289594;22;20379;-84
2021/08/17 03:01:03;;;;;;;6.50;3.27;;;14.40;99.90;;;;;;6287030;22;20555;-84
2021/08/17 03:03:29;;;;;;;4.03;2.73;;;;;;;;;;6284528;22;20415;-85
2021/08/17 03:05:56;;;;;;;8.73;3.80;;;14.30;99.90;;;;;;6283293;22;20738;-85
2021/08/17 03:08:23;;;;;;;3.13;2.67;;;14.20;99.90;;;;;;6294163;22;20412;-84
2021/08/17 03:10:51;;;;;;;4.40;2.47;;;14.30;99.90;;;;;;6294459;22;20421;-84
2021/08/17 03:13:17;;;;;;;5.87;2.97;;;14.40;99.90;;;;;;6291986;22;20442;-84
2021/08/17 03:15:44;;;;;;;5.50;3.27;;;14.40;99.90;;;;;;6290850;22;20405;-83
2021/08/17 03:18:11;;;;;;;5.13;2.47;;;14.50;99.90;;;;;;6287411;22;20897;-83
2021/08/17 03:20:38;;;;;;;6.03;3.37;;;14.50;99.90;;;;;;6281769;22;20445;-84
2021/08/17 03:23:06;;;;;;;4.90;3.60;;;14.30;99.90;;;;;;6280798;22;20744;-83
2021/08/17 03:25:32;;;;;;;3.23;2.93;;;14.30;99.90;;;;;;6281218;22;20714;-84
2021/08/17 03:28:00;;;;;;;6.70;4.37;;;14.20;99.90;;;;;;6280881;22;20959;-84
2021/08/17 03:30:27;;;;;;;8.53;3.80;;;14.20;99.90;;;;;;6281178;22;20424;-82
2021/08/17 03:32:55;;;;;;;6.50;3.83;;;14.20;99.90;;;;;;6281508;22;20742;-84
2021/08/17 03:35:22;;;;;;;4.27;2.90;;;14.20;99.90;;;;;;6281825;22;20400;-84
2021/08/17 03:37:50;;;;;;;6.17;3.57;;;14.20;99.90;;;;;;6285346;22;20404;-84
2021/08/17 03:40:22;;;;;;;3.37;3.00;;;14.30;99.90;;;;;;6278910;22;21006;-84
2021/08/17 03:42:50;;;;;;;4.73;3.00;;;14.30;99.90;;;;;;6281040;22;20436;-85
2021/08/17 03:45:20;;;;;;;4.83;3.33;;;14.20;99.90;;;;;;6282539;22;20795;-85
2021/08/17 03:47:47;;;;;;;8.60;3.07;;;14.30;99.90;;;;;;6281109;22;20434;-85
2021/08/17 03:50:15;;;;;;;7.03;3.90;;;14.40;99.90;;;;;;6284170;22;20425;-84
2021/08/17 03:52:44;;;;;;;7.00;2.80;;;14.80;99.90;;;;;;6282630;22;20484;-84
2021/08/17 03:55:12;;;;;;;5.30;3.30;;;14.50;99.90;;;;;;6283071;22;20401;-85
2021/08/17 03:57:39;;;;;;;5.93;3.73;;;14.60;99.90;;;;;;6282383;22;20397;-85
2021/08/17 04:00:07;;;;;;;6.93;3.00;;;14.70;99.90;;;;;;6282007;22;20471;-85
2021/08/17 04:02:35;;;;;;;5.13;3.13;;;14.80;99.90;;;;;;6283729;22;20428;-84
2021/08/17 04:05:02;;;;;;;4.50;3.37;;;14.60;99.90;;;;;;6283965;22;20405;-85
2021/08/17 04:07:28;;;;;;;8.83;3.43;;;14.70;99.90;;;;;;6282205;22;20909;-84
2021/08/17 04:09:57;;;;;;;5.50;2.93;;;14.60;99.90;;;;;;6283942;22;20425;-84
2021/08/17 04:12:23;;;;;;;3.67;3.10;;;14.80;99.90;;;;;;6282246;22;20384;-84
2021/08/17 04:14:50;;;;;;;4.83;3.27;;;14.70;99.90;;;;;;6283176;22;20467;-84
2021/08/17 04:17:17;;;;;;;2.90;2.50;;;14.60;99.90;;;;;;6282496;22;20409;-84
2021/08/17 04:19:45;;;;;;;5.90;2.67;;;14.80;99.90;;;;;;6282510;22;20421;-84
2021/08/17 04:22:12;;;;;;;6.40;3.50;;;;;;;;;;6285075;22;20940;-84
2021/08/17 04:24:38;;;;;;;10.47;3.77;;;14.90;99.90;;;;;;6285135;22;20405;-85
2021/08/17 04:27:05;;;;;;;5.47;2.90;;;14.90;99.90;;;;;;6285213;22;20748;-85
2021/08/17 04:29:32;;;;;;;8.90;3.27;;;14.80;99.90;;;;;;6284242;22;20412;-85
2021/08/17 04:31:59;;;;;;;5.97;2.70;;;15.00;99.90;;;;;;6284261;22;20405;-84
2021/08/17 04:34:25;;;;;;;10.00;3.40;;;15.00;99.90;;;;;;6284730;22;20935;-84
2021/08/17 04:36:53;;;;;;;7.83;3.23;;;15.00;99.90;;;;;;6283986;22;20902;-85
2021/08/17 04:39:20;;;;;;;7.50;2.90;;;14.90;99.90;;;;;;6284775;22;20406;-84
2021/08/17 04:41:46;;;;;;;6.73;3.40;;;14.90;99.90;;;;;;6282588;22;20445;-84
2021/08/17 04:44:13;;;;;;;4.10;3.03;;;14.90;99.90;;;;;;6282747;22;20404;-84
2021/08/17 04:46:40;;;;;;;6.03;2.80;;;15.00;99.90;;;;;;6284738;22;20409;-84
2021/08/17 04:49:07;;;;;;;7.53;3.73;;;14.90;99.90;;;;;;6289545;22;20409;-84
2021/08/17 04:51:34;;;;;;;6.93;3.27;;;15.00;99.90;;;;;;6294436;22;20471;-84
2021/08/17 04:54:01;;;;;;;6.63;3.50;;;15.00;99.90;;;;;;6296351;22;20405;-84
2021/08/17 04:56:28;;;;;;;7.30;3.73;;;15.00;99.90;;;;;;6287460;22;20428;-84
2021/08/17 04:58:55;;;;;;;8.67;3.83;;;15.10;99.90;;;;;;6281497;22;20474;-84
2021/08/17 05:01:21;;;;;;;5.03;3.30;;;15.20;99.90;;;;;;6282511;22;20448;-84
2021/08/17 05:03:48;;;;;;;9.07;3.90;;;15.10;99.90;;;;;;6281910;22;20505;-84
2021/08/17 05:06:14;;;;;;;3.20;2.80;;;15.10;99.90;;;;;;6282187;22;20463;-84
2021/08/17 05:08:41;;;;;;;3.53;2.83;;;15.10;99.90;;;;;;6283347;22;20409;-83
2021/08/17 05:11:10;;;;;;;6.60;3.30;;;15.10;99.90;;;;;;6281729;22;20421;-84
2021/08/17 05:13:36;;;;;;;8.97;3.90;;;15.10;99.90;;;;;;6282756;22;20744;-85
2021/08/17 05:16:03;;;;;;;6.63;2.80;;;15.40;99.90;;;;;;6282136;22;20740;-84
2021/08/17 05:18:32;;;;;;;9.03;3.80;;;15.20;99.90;;;;;;6282274;22;20405;-84
2021/08/17 05:20:59;;;;;;;7.37;3.90;;;15.20;99.90;;;;;;6281663;22;20441;-84
2021/08/17 05:23:26;;;;;;;5.13;3.43;;;15.20;99.90;;;;;;6282555;22;20893;-84
2021/08/17 05:25:53;;;;;;;6.00;3.70;;;15.20;99.90;;;;;;6282968;22;20432;-85
2021/08/17 05:28:21;;;;;;;4.77;3.53;;;15.30;99.90;;;;;;6297443;22;20401;-85
2021/08/17 05:30:48;;;;;;;5.30;3.63;;;15.20;99.90;;;;;;6286591;22;20432;-85
2021/08/17 05:33:14;;;;;;;8.33;3.40;;;15.10;99.90;;;;;;6280329;22;20405;-85
2021/08/17 05:35:43;;;;;;;3.70;3.40;;;15.20;99.90;;;;;;6280571;22;20412;-85
2021/08/17 05:38:09;;;;;;;9.73;2.93;;;15.30;99.90;;;;;;6283128;22;20409;-83
2021/08/17 05:40:36;;;;;;;4.33;3.60;;;15.20;99.90;;;;;;6285708;22;20452;-84
2021/08/17 05:43:04;;;;;;;7.70;3.17;;;15.30;99.90;;;;;;6286476;22;20401;-84
2021/08/17 05:45:33;;;;;;;12.70;5.07;;;15.20;99.90;;;;;;6288491;22;20420;-84
2021/08/17 05:48:01;;;;;;;9.53;3.33;;;15.20;99.90;;;;;;6292582;22;20401;-83
2021/08/17 05:50:27;;;;;;;3.93;3.10;;;15.20;99.90;;;;;;6290758;22;20447;-83
2021/08/17 05:52:54;;;;;;;5.93;3.30;;;15.10;99.90;;;;;;6286053;22;20459;-84
2021/08/17 05:55:21;;;;;;;8.10;4.27;;;15.00;99.90;;;;;;6285822;22;20465;-84
2021/08/17 05:57:57;;;;;;;7.50;4.23;;;14.40;99.90;;;;;;6287020;22;20405;-84
2021/08/17 06:00:24;;;;;;;10.13;4.77;;;14.40;99.90;;;;;;6287811;22;20468;-84
2021/08/17 06:02:52;;;;;;;10.27;4.20;;;14.30;99.90;;;;;;6288049;22;20405;-85
2021/08/17 06:05:19;;;;;;;7.13;4.57;;;14.20;99.90;;;;;;6287704;22;20401;-85
2021/08/17 06:07:46;;;;;;;7.57;4.17;;;14.10;99.90;;;;;;6288919;22;20459;-83
2021/08/17 06:10:13;;;;;;;7.20;4.27;;;14.10;99.90;;;;;;6288325;22;20425;-84
2021/08/17 06:12:40;;;;;;;11.17;5.13;;;14.20;99.90;;;;;;6290315;22;20736;-84
2021/08/17 06:15:10;;;;;;;10.30;5.73;;;14.30;99.90;;;;;;6289047;22;20413;-83
2021/08/17 06:17:36;;;;;;;8.90;4.80;;;14.20;99.90;;;;;;6290282;22;20405;-83
2021/08/17 06:20:06;;;;;;;5.30;4.30;;;14.30;99.90;;;;;;6291056;22;20429;-83
2021/08/17 06:22:32;;;;;;;10.27;5.07;;;14.20;99.90;;;;;;6300431;22;20367;-83
2021/08/17 06:24:59;;;;;;;10.10;4.80;;;14.30;99.90;;;;;;6296286;22;20401;-83
2021/08/17 06:27:27;;;;;;;12.30;4.50;;;14.30;99.90;;;;;;6289289;22;20447;-84
2021/08/17 06:29:54;;;;;;;15.00;5.93;;;14.30;99.90;;;;;;6288867;22;20424;-84
2021/08/17 06:32:21;;;;;;;8.00;4.20;;;14.30;99.90;;;;;;6288685;22;20401;-84
2021/08/17 06:34:47;;;;;;;9.30;4.53;;;14.30;99.90;;;;;;6288319;22;20410;-84
2021/08/17 06:37:15;;;;;;;15.37;6.47;;;13.90;99.90;;;;;;6289230;22;20400;-84
2021/08/17 06:39:42;;;;;;;10.07;5.03;;;14.30;99.90;;;;;;6288307;22;20429;-84
2021/08/17 06:42:08;;;;;;;8.20;4.80;;;14.30;99.90;;;;;;6289273;22;20471;-84
2021/08/17 06:44:35;;;;;;;8.20;5.13;;;14.30;99.90;;;;;;6290392;22;20404;-83
2021/08/17 06:47:02;;;;;;;9.23;4.90;;;14.40;99.90;;;;;;6290547;22;20459;-84
2021/08/17 06:49:29;;;;;;;10.80;4.77;;;14.30;99.90;;;;;;6289862;22;20444;-84
2021/08/17 06:51:55;;;;;;;9.47;4.97;;;14.50;99.90;;;;;;6292001;22;20401;-83
2021/08/17 06:54:24;;;;;;;11.83;5.30;;;14.50;99.90;;;;;;6290826;22;20409;-83
2021/08/17 06:56:50;;;;;;;7.43;4.70;;;14.60;99.90;;;;;;6291193;22;20405;-84
2021/08/17 06:59:17;;;;;;;14.97;5.03;;;14.60;99.90;;;;;;6304372;22;20435;-85
2021/08/17 07:01:44;;;;;;;14.20;5.07;;;14.50;99.90;;;;;;6304847;22;20429;-84
2021/08/17 07:04:13;;;;;;;10.30;5.07;;;14.60;99.90;;;;;;6304955;22;20459;-85
2021/08/17 07:06:40;;;;;;;3.80;3.27;;;14.60;99.90;;;;;;6304740;22;20406;-84
2021/08/17 07:09:07;;;;;;;8.13;4.00;;;14.70;99.90;;;;;;6302495;22;20405;-84
2021/08/17 07:11:35;;;;;;;4.77;3.67;;;14.50;99.90;;;;;;6301120;22;20917;-84
2021/08/17 07:14:01;;;;;;;4.70;3.73;;;14.70;99.90;;;;;;6300272;22;20401;-84
2021/08/17 07:16:28;;;;;;;6.67;4.03;;;14.80;99.90;;;;;;6300175;22;20427;-84
2021/08/17 07:18:54;;;;;;;8.53;4.13;;;14.90;99.90;;;;;;6298840;22;20401;-84
2021/08/17 07:21:21;;;;;;;7.20;4.40;;;15.00;99.90;;;;;;6297720;22;20750;-84
2021/08/17 07:23:48;;;;;;;8.50;4.07;;;15.10;99.90;;;;;;6298225;22;20401;-84
2021/08/17 07:26:14;;;;;;;5.50;3.23;;;15.10;99.90;;;;;;6299010;22;20401;-84
2021/08/17 07:28:42;;;;;;;7.23;4.03;;;15.10;99.90;;;;;;6296038;22;20401;-84
2021/08/17 07:31:09;;;;;;;5.83;3.80;;;15.10;99.90;;;;;;6296580;22;20417;-83
2021/08/17 07:33:36;;;;;;;8.43;4.60;;;15.20;99.90;;;;;;6295827;22;20421;-85
2021/08/17 07:36:03;;;;;;;6.93;3.50;;;15.20;99.90;;;;;;6294880;22;20412;-84
2021/08/17 07:38:30;;;;;;;9.87;4.73;;;15.30;99.90;;;;;;6295268;22;20409;-83
2021/08/17 07:40:56;;;;;;;9.20;3.87;;;15.30;99.90;;;;;;6284374;22;20948;-84
2021/08/17 07:43:23;;;;;;;6.23;3.70;;;15.40;99.90;;;;;;6283558;22;20409;-84
2021/08/17 07:45:51;;;;;;;4.20;3.07;;;15.40;99.90;;;;;;6283165;22;20419;-85
2021/08/17 07:48:18;;;;;;;9.00;3.83;;;15.40;99.90;;;;;;6282650;22;20424;-85
2021/08/17 07:50:44;;;;;;;6.90;4.00;;;15.50;99.90;;;;;;6284441;22;20420;-85
2021/08/17 07:53:11;;;;;;;14.70;5.27;;;15.50;99.90;;;;;;6285690;22;20405;-86
2021/08/17 07:55:38;;;;;;;9.20;3.60;;;15.50;99.90;;;;;;6284699;22;20818;-85
2021/08/17 07:58:04;;;;;;;7.97;4.60;;;15.50;99.90;;;;;;6282991;22;20409;-85
2021/08/17 08:00:32;;;;;;;13.47;3.67;;;15.50;99.90;;;;;;6282335;22;20425;-85
2021/08/17 08:03:00;;;;;;;9.00;4.57;;;15.50;99.90;;;;;;6282434;22;20400;-85
2021/08/17 08:05:27;;;;;;;4.87;3.73;;;15.40;99.90;;;;;;6283093;22;20462;-85
2021/08/17 08:07:55;;;;;;;5.63;3.77;;;15.40;99.90;;;;;;6282007;22;20405;-84
2021/08/17 08:10:21;;;;;;;7.40;4.20;;;15.40;99.90;;;;;;6281359;22;20421;-85
2021/08/17 08:12:48;;;;;;;7.83;3.97;;;15.50;99.90;;;;;;6281403;22;20401;-85
2021/08/17 08:15:14;;;;;;;6.70;3.17;;;15.60;99.90;;;;;;6280788;22;20971;-86
2021/08/17 08:17:41;;;;;;;3.83;3.00;;;15.70;99.90;;;;;;6281242;22;20405;-86
2021/08/17 08:20:11;;;;;;;6.93;3.40;;;15.70;99.90;;;;;;6281274;22;20769;-84
2021/08/17 08:22:37;;;;;;;6.47;3.30;;;15.60;99.90;;;;;;6280803;22;20490;-85
2021/08/17 08:25:06;;;;;;;5.47;3.20;;;15.60;99.90;;;;;;6280402;22;20759;-85
2021/08/17 08:27:33;;;;;;;6.27;3.40;;;15.50;99.90;;;;;;6281849;22;20420;-86
2021/08/17 08:30:00;;;;;;;5.20;2.83;;;15.50;99.90;;;;;;6301981;22;20405;-86
2021/08/17 08:32:27;;;;;;;4.63;3.63;;;15.60;99.90;;;;;;6283542;22;20781;-85
2021/08/17 08:34:53;;;;;;;12.33;4.10;;;15.50;99.90;;;;;;6281300;22;20409;-85
2021/08/17 08:37:21;;;;;;;8.80;3.87;;;15.50;99.90;;;;;;6281443;22;20405;-86
2021/08/17 08:39:48;;;;;;;7.70;3.20;;;15.60;99.90;;;;;;6280273;22;20433;-86
2021/08/17 08:42:14;;;;;;;9.43;3.93;;;15.50;99.90;;;;;;6279713;22;20417;-86
2021/08/17 08:44:41;;;;;;;13.93;10.03;;;15.50;99.90;;;;;;6281868;22;20409;-86
2021/08/17 08:47:08;;;;;;;10.10;5.23;;;15.60;99.90;;;;;;6282012;22;20890;-86
2021/08/17 08:49:35;;;;;;;13.33;4.50;;;15.70;99.90;;;;;;6280870;22;20405;-85
2021/08/17 08:52:02;;;;;;;3.20;2.90;;;15.70;99.90;;;;;;6280681;22;20418;-86
2021/08/17 08:54:30;;;;;;;7.60;3.20;;;15.70;99.90;;;;;;6287363;22;20401;-85
2021/08/17 08:56:57;;;;;;;8.70;3.37;;;15.70;99.90;;;;;;6291599;22;20401;-84
2021/08/17 08:59:23;;;;;;;5.60;3.33;;;15.70;99.90;;;;;;6283868;22;20412;-85
2021/08/17 09:01:50;;;;;;;3.63;2.90;;;15.70;99.90;;;;;;6289415;22;20436;-84
2021/08/17 09:04:17;;;;;;;3.97;2.60;;;15.80;99.90;;;;;;6294239;22;20401;-83
2021/08/17 09:06:52;;;;;;;6.43;3.30;;;15.80;99.90;;;;;;6295544;22;20462;-84
2021/08/17 09:09:19;;;;;;;4.40;3.03;;;15.70;99.90;;;;;;6293600;22;20471;-83
2021/08/17 09:11:49;;;;;;;4.40;2.80;;;15.60;99.90;;;;;;6292948;22;20417;-83
2021/08/17 09:14:24;;;;;;;3.67;3.23;;;15.50;99.90;;;;;;6295217;22;20406;-83
2021/08/17 09:16:53;;;;;;;9.20;3.50;;;15.60;99.90;;;;;;6294774;22;20393;-83
2021/08/17 09:19:34;;;;;;;9.63;3.40;;;15.60;99.90;;;;;;6293632;22;20397;-83
2021/08/17 09:22:04;;;;;;;4.97;3.60;;;15.50;99.90;;;;;;6293141;22;20426;-83
2021/08/17 09:24:34;;;;;;;6.43;3.50;;;15.60;99.90;;;;;;6293634;22;20439;-83
2021/08/17 09:27:04;;;;;;;5.70;3.37;;;15.60;99.90;;;;;;6294294;22;20719;-83
2021/08/17 09:29:36;;;;;;;7.20;4.10;;;15.50;99.90;;;;;;6293515;22;20439;-83
2021/08/17 09:32:13;;;;;;;5.23;3.77;;;15.70;99.90;;;;;;6294767;22;20417;-83
2021/08/17 09:34:41;;;;;;;6.93;3.10;;;15.70;99.90;;;;;;6294665;22;20420;-84
2021/08/17 09:37:11;;;;;;;4.10;3.70;;;15.70;99.90;;;;;;6294624;22;20400;-84
2021/08/17 09:39:40;;;;;;;4.40;4.00;;;15.90;99.90;;;;;;6294007;22;20405;-84
2021/08/17 09:42:17;;;;;;;5.57;3.83;;;15.80;99.90;;;;;;6288472;22;20822;-84
2021/08/17 09:44:44;;;;;;;8.57;4.97;;;15.90;99.90;;;;;;6287152;22;20389;-83
2021/08/17 09:47:11;;;;;;;9.27;4.00;;;15.90;99.90;;;;;;6286409;22;20768;-83
2021/08/17 09:49:38;;;;;;;18.83;4.03;;;15.80;99.90;;;;;;6286025;22;20405;-84
2021/08/17 09:52:11;;;;;;;6.33;3.80;;;15.80;99.90;;;;;;6285830;22;20421;-84
2021/08/17 09:54:39;;;;;;;6.27;4.13;;;15.80;99.90;;;;;;6284260;22;20405;-84
2021/08/17 09:57:07;;;;;;;5.87;3.93;;;15.70;99.90;;;;;;6284039;22;20441;-83
2021/08/17 09:59:37;;;;;;;11.33;2.90;;;15.70;99.90;;;;;;6283371;22;20401;-84
2021/08/17 10:02:05;;;;;;;5.50;3.60;;;15.70;99.90;;;;;;6283813;22;20449;-85
2021/08/17 10:04:32;;;;;;;10.43;4.57;;;15.70;99.90;;;;;;6292949;22;20393;-84
2021/08/17 10:07:00;;;;;;;9.77;4.20;;;15.70;99.90;;;;;;6283394;22;20459;-85
2021/08/17 10:09:28;;;;;;;8.47;3.93;;;15.80;99.90;;;;;;6285181;22;20409;-83
2021/08/17 10:11:55;;;;;;;7.67;3.70;;;15.90;99.90;;;;;;6284445;22;20417;-84
2021/08/17 10:14:23;;;;;;;8.53;3.60;;;15.90;99.90;;;;;;6283426;22;20451;-84
2021/08/17 10:16:51;;;;;;;10.00;3.03;;;16.00;99.90;;;;;;6283520;22;20405;-84
2021/08/17 10:19:21;;;;;;;6.40;3.00;;;16.00;99.90;;;;;;6284121;22;20455;-84
2021/08/17 10:21:49;;;;;;;7.43;3.33;;;16.20;99.90;;;;;;6283998;22;20455;-84
2021/08/17 10:24:41;;;;;;;13.23;3.93;;;16.30;99.90;;;;;;6283979;22;20405;-84
2021/08/17 10:27:25;;;;;;;7.77;3.13;;;16.50;99.90;;;;;;6261323;22;20409;-84
2021/08/17 10:29:57;;;;;;;5.50;3.30;;;16.50;99.90;;;;;;6283681;22;20389;-84
2021/08/17 10:32:44;;;;;;;8.77;3.53;;;16.50;99.90;;;;;;6287563;22;20431;-84
2021/08/17 10:35:32;;;;;;;4.77;3.17;;;16.80;99.90;;;;;;6283892;22;20412;-84
2021/08/17 10:38:32;;;;;;;12.73;4.20;;;16.80;99.90;;;;;;6283871;22;20480;-83
2021/08/17 10:41:03;;;;;;;6.93;3.17;;;17.00;99.90;;;;;;6286921;22;20441;-83
2021/08/17 10:44:12;;;;;;;8.50;3.47;;;17.10;99.90;;;;;;6302851;22;20445;-83
2021/08/17 10:46:50;;;;;;;3.67;2.47;;;17.10;99.90;;;;;;6298862;22;20480;-82
2021/08/17 10:49:49;;;;;;;8.10;3.03;;;17.20;99.90;;;;;;6290602;22;20381;-82
2021/08/17 10:52:30;;;;;;;8.40;2.97;;;17.20;99.90;;;;;;6289885;22;20408;-83
2021/08/17 10:55:20;;;;;;;9.50;2.83;;;17.30;99.90;;;;;;6285593;22;20405;-83
2021/08/17 10:57:52;;;;;;;9.10;3.57;;;17.20;99.90;;;;;;6288267;22;20412;-84
2021/08/17 11:00:51;;;;;;;3.80;2.40;;;17.10;99.90;;;;;;6286996;22;20432;-83
2021/08/17 11:03:38;;;;;;;5.07;2.30;;;17.10;99.90;;;;;;6286932;22;20441;-83
2021/08/17 11:06:06;;;;;;;15.33;3.33;;;16.90;99.90;;;;;;6287845;22;20398;-84
2021/08/17 11:08:40;;;;;;;5.83;2.80;;;16.90;99.90;;;;;;6286078;22;20728;-84
2021/08/17 11:11:19;;;;;;;5.97;2.50;;;16.90;99.90;;;;;;6286135;22;20422;-84
2021/08/17 11:14:11;;;;;;;3.83;2.50;;;17.00;99.90;;;;;;6287446;22;20385;-85
2021/08/17 11:16:44;;;;;;;5.73;2.30;;;16.90;99.90;;;;;;6257508;22;20943;-84
2021/08/17 11:19:11;;;;;;;6.07;3.00;;;16.80;99.90;;;;;;6284822;22;20455;-84
2021/08/17 11:21:41;;;;;;;6.63;2.47;;;16.80;99.90;;;;;;6286575;22;20424;-84
2021/08/17 11:24:15;;;;;;;4.83;2.70;;;16.80;99.90;;;;;;6286697;22;20389;-83
2021/08/17 11:26:43;;;;;;;4.40;2.73;;;16.80;99.90;;;;;;6286567;22;20534;-83
2021/08/17 11:29:15;;;;;;;8.50;3.17;;;16.60;99.90;;;;;;6286509;22;20397;-82
2021/08/17 11:31:47;;;;;;;5.53;3.10;;;16.40;99.90;;;;;;6285128;22;20421;-83
2021/08/17 11:34:15;;;;;;;10.17;3.37;;;16.30;99.90;;;;;;6285909;22;20455;-84
2021/08/17 11:36:50;;;;;;;4.73;3.47;;;15.60;99.90;;;;;;6285627;22;20401;-84
2021/08/17 11:39:18;;;;;;;4.87;3.67;;;15.10;99.90;;;;;;6286117;22;20384;-85
2021/08/17 11:41:45;;;;;;;3.90;3.60;;;14.70;99.90;;;;;;6284472;22;20433;-83
2021/08/17 11:44:12;;;;;;;6.63;3.70;;;14.50;99.90;;;;;;6291318;22;20449;-84
2021/08/17 11:46:38;;;;;;;14.70;6.23;;;14.50;99.90;;;;;;6288110;22;20749;-82
2021/08/17 11:49:29;;;;;;;11.33;4.60;;;14.50;99.90;;;;;;6286659;22;20729;-83
2021/08/17 11:52:09;;;;;;;13.40;4.97;;;14.70;99.90;;;;;;6262713;22;20433;-84
2021/08/17 11:54:46;;;;;;;7.20;4.90;;;14.90;99.90;;;;;;6285150;22;20389;-84
2021/08/17 11:57:16;;;;;;;13.13;5.10;;;15.10;99.90;;;;;;6284874;22;20380;-84
2021/08/17 11:59:45;;;;;;;6.83;4.90;;;15.30;99.90;;;;;;6295108;22;20721;-83
2021/08/17 12:02:22;;;;;;;7.87;5.97;;;15.60;99.90;;;;;;6299041;22;20445;-84
2021/08/17 12:04:50;;;;;;;15.40;8.67;;;15.70;99.90;;;;;;6298917;22;20369;-83
2021/08/17 12:07:18;;;;;;;6.73;4.53;;;15.90;99.90;;;;;;6299723;22;20401;-83
2021/08/17 12:09:46;;;;;;;7.70;4.37;;;16.10;99.90;;;;;;6298217;22;20408;-84
2021/08/17 12:12:16;;;;;;;10.60;4.47;;;16.10;99.90;;;;;;6290715;22;20443;-84
2021/08/17 12:14:43;;;;;;;8.83;3.93;;;16.40;99.90;;;;;;6290028;22;20711;-83
2021/08/17 12:17:12;;;;;;;12.57;4.47;;;16.20;99.90;;;;;;6290972;22;20404;-84
2021/08/17 12:19:45;;;;;;;9.33;4.90;;;16.20;99.90;;;;;;6289935;22;20401;-84
2021/08/17 12:22:27;;;;;;;9.70;5.00;;;16.30;99.90;;;;;;6288672;22;20487;-83
2021/08/17 12:24:55;;;;;;;6.30;4.17;;;16.50;99.90;;;;;;6290355;22;20488;-84
2021/08/17 12:27:27;;;;;;;7.17;3.33;;;16.40;99.90;;;;;;6286630;22;20409;-84
2021/08/17 12:29:55;;;;;;;8.70;3.20;;;16.30;99.90;;;;;;6285741;22;20405;-83
2021/08/17 12:32:23;;;;;;;8.00;3.70;;;16.40;99.90;;;;;;6284997;22;20812;-84
2021/08/17 12:34:52;;;;;;;9.13;3.20;;;16.20;99.90;;;;;;6285436;22;20394;-84
2021/08/17 12:37:28;;;;;;;9.07;4.00;;;16.30;99.90;;;;;;6285110;22;20413;-84
2021/08/17 12:39:55;;;;;;;10.47;5.00;;;16.10;99.90;;;;;;6285391;22;20400;-84
2021/08/17 12:42:22;;;;;;;9.60;3.80;;;16.00;99.90;;;;;;6284574;22;20839;-84
2021/08/17 12:44:50;;;;;;;6.90;3.60;;;16.00;99.90;;;;;;6285579;22;20463;-84
2021/08/17 12:47:18;;;;;;;11.10;3.80;;;16.00;99.90;;;;;;6290905;22;20405;-84
2021/08/17 12:49:47;;;;;;;3.80;3.30;;;16.10;99.90;;;;;;6287932;22;20411;-83
2021/08/17 12:52:27;;;;;;;6.50;3.93;;;16.20;99.90;;;;;;6282524;22;20750;-83
2021/08/17 12:54:55;;;;;;;10.03;3.57;;;16.30;99.90;;;;;;6284158;22;20394;-84